Latest Weather Observations for Edinburgh

IDS60901

Issued at 11:51 pm CST Friday 14 August 2020 (issued every 10 minutes, with the page automatically refreshed every 10 minutes)

About weather observations | Map of Adelaide area stations | Latest observations for Adelaide area | Other Formats
Station Details ID: 023083 Name: EDINBURGH RAAF Lat: -34.71 Lon: 138.62 Height: 16.54 m
Data from the previous 72 hours. | See also: Recent months at Edinburgh
Date/Time
CST
Temp
°C
App
Temp
°C
Dew
Point
°C
Rel
Hum
%
Delta-T
°C
Wind Press
QNH
hPa
Press
MSL
hPa
Rain since
9am
mm
Dir  Spd
km/h
Gust
km/h
Spd
kts
Gust
kts
14/11:30pm 10.9 9.1 9.3 90 0.8 NNE 9 9 5 5 1013.9 1013.9 0.0
14/11:00pm 11.1 9.3 9.5 90 0.8 NE 9 9 5 5 1013.8 1013.8 0.0
14/10:53pm 11.1 9.7 9.5 90 0.8 NNE 7 9 4 5 1013.8 1013.8 0.0
14/10:30pm 11.1 9.7 9.5 90 0.8 N 7 9 4 5 1013.8 1013.8 0.0
14/10:00pm 11.4 10.1 9.8 90 0.8 NNW 7 11 4 6 1013.9 1013.9 0.0
14/09:30pm 11.4 9.7 9.8 90 0.8 NNW 9 9 5 5 1013.9 1013.9 0.0
14/09:00pm 11.0 9.2 9.3 89 0.8 NW 9 9 5 5 1013.6 1013.6 0.0
14/08:30pm 11.3 10.0 9.2 87 1.0 NW 6 7 3 4 1013.4 1013.4 0.0
14/08:00pm 11.4 10.1 9.3 87 1.1 WNW 6 7 3 4 1013.1 1013.1 0.0
14/07:30pm 11.7 10.5 9.4 86 1.2 NW 6 7 3 4 1012.8 1012.8 0.0
14/07:00pm 12.2 11.1 9.8 85 1.2 WNW 6 6 3 3 1012.6 1012.6 0.0
14/06:30pm 12.5 12.6 10.0 85 1.3 CALM 0 2 0 1 1012.2 1012.2 0.0
14/06:00pm 12.5 11.3 9.5 82 1.5 WSW 6 7 3 4 1011.9 1011.9 0.0
14/05:30pm 13.2 11.4 9.6 79 1.8 WSW 9 11 5 6 1011.6 1011.6 0.0
14/05:00pm 14.7 11.9 10.1 74 2.4 W 15 19 8 10 1011.2 1011.2 0.0
14/04:30pm 15.3 11.6 10.1 71 2.7 W 20 24 11 13 1010.9 1010.9 0.0
14/04:00pm 15.6 11.3 9.5 67 3.2 WNW 22 30 12 16 1010.7 1010.7 0.0
14/03:30pm 16.5 11.9 9.7 64 3.6 WNW 24 33 13 18 1010.5 1010.5 0.0
14/03:00pm 16.6 11.9 9.3 62 3.8 WNW 24 30 13 16 1010.4 1010.4 0.0
14/02:30pm 16.3 11.1 8.8 61 3.9 WNW 26 32 14 17 1010.5 1010.5 0.0
14/02:00pm 16.8 12.5 10.6 67 3.3 WNW 24 35 13 19 1010.4 1010.4 0.0
14/01:30pm 16.9 12.6 10.7 67 3.3 WNW 24 30 13 16 1010.4 1010.4 0.0
14/01:00pm 15.0 11.4 9.8 71 2.7 NW 19 24 10 13 1010.7 1010.7 0.0
14/12:30pm 15.1 11.7 10.7 75 2.3 NW 19 26 10 14 1011.1 1011.1 0.0
14/12:00pm 15.2 11.6 10.4 73 2.5 WNW 20 24 11 13 1011.5 1011.5 0.0
14/11:30am 15.3 11.8 10.9 75 2.3 WNW 20 28 11 15 1011.6 1011.6 0.0
14/11:01am 14.4 9.9 10.2 76 2.2 NW 24 35 13 19 1011.6 1011.6 0.0
14/11:00am 14.4 9.8 9.8 74 2.4 NW 24 35 13 19 1011.6 1011.6 0.0
14/10:30am 13.7 10.2 10.3 80 1.8 NW 19 22 10 12 1012.1 1012.1 0.0
14/10:00am 13.7 10.7 10.5 81 1.7 NNW 17 24 9 13 1012.1 1012.1 0.0
14/09:30am 12.9 9.8 10.3 84 1.3 NNW 17 22 9 12 1012.1 1012.1 0.0
14/09:06am 12.3 10.1 9.3 82 1.5 NNE 11 15 6 8 1011.9 1011.9 0.0
14/09:00am 12.1 9.9 9.5 84 1.3 NNE 11 13 6 7 1012.0 1012.0 0.0
14/08:45am 11.1 8.3 8.7 85 1.2 N 13 15 7 8 1012.0 1012.0 0.0
14/08:30am 11.3 9.0 9.0 86 1.1 N 11 15 6 8 1011.8 1011.8 0.0
14/08:00am 9.8 7.7 8.1 89 0.8 NNE 9 11 5 6 1011.7 1011.7 0.0
14/07:38am 8.9 6.5 7.0 88 0.9 NNE 9 11 5 6 1011.5 1011.5 0.0
14/07:30am 9.0 6.2 7.1 88 0.9 NNE 11 15 6 8 1011.3 1011.3 0.0
14/07:00am 9.1 6.8 7.4 89 0.8 NNE 9 11 5 6 1011.1 1011.1 0.0
14/06:55am 9.0 6.7 7.3 89 0.8 NNE 9 11 5 6 1011.1 1011.1 0.0
14/06:30am 9.4 7.1 7.3 87 1.0 NE 9 11 5 6 1010.8 1010.8 0.0
14/06:00am 9.7 7.4 7.6 87 1.0 NE 9 11 5 6 1010.6 1010.6 0.0
14/05:30am 9.7 7.5 7.8 88 0.9 NE 9 11 5 6 1010.3 1010.3 0.0
14/05:00am 9.2 6.5 7.3 88 0.9 NE 11 13 6 7 1010.1 1010.1 0.0
14/04:30am 10.0 7.8 7.9 87 1.0 NE 9 13 5 7 1010.1 1010.1 0.0
14/04:00am 10.2 8.1 8.1 87 1.0 NNE 9 13 5 7 1010.0 1010.0 0.0
14/03:30am 10.1 7.9 8.0 87 1.0 N 9 11 5 6 1010.2 1010.2 0.0
14/03:00am 9.9 7.4 8.0 88 0.9 NE 11 13 6 7 1010.3 1010.3 0.0
14/02:30am 9.8 7.7 8.1 89 0.8 NE 9 13 5 7 1010.4 1010.4 0.0
14/02:00am 10.1 8.0 8.2 88 0.9 ENE 9 13 5 7 1010.6 1010.6 0.0
14/01:30am 10.0 7.9 8.1 88 0.9 NE 9 13 5 7 1010.7 1010.7 0.0
14/01:00am 10.7 8.3 8.5 86 1.1 N 11 15 6 8 1010.7 1010.7 0.0
14/12:30am 11.0 7.5 8.8 86 1.1 N 17 20 9 11 1011.0 1011.0 0.0
14/12:00am 11.6 8.2 9.3 86 1.2 N 17 22 9 12 1011.0 1011.0 0.0
 
Date/Time
CST
Temp
°C
App
Temp
°C
Dew
Point
°C
Rel
Hum
%
Delta-T
°C
Wind Press
QNH
hPa
Press
MSL
hPa
Rain since
9am
mm
Dir  Spd
km/h
Gust
km/h
Spd
kts
Gust
kts
13/11:30pm 11.4 8.8 9.5 88 1.0 N 13 17 7 9 1011.3 1011.3 0.0
13/11:00pm 11.6 9.6 10.0 90 0.8 NNE 11 13 6 7 1011.5 1011.5 0.0
13/10:30pm 11.7 9.6 9.9 89 0.9 NE 11 13 6 7 1011.5 1011.5 0.0
13/10:00pm 11.9 10.2 10.0 88 1.0 NE 9 11 5 6 1011.7 1011.7 0.0
13/09:30pm 12.1 9.7 10.2 88 1.0 NE 13 17 7 9 1011.7 1011.7 0.0
13/09:00pm 12.3 10.0 10.4 88 1.0 NNE 13 15 7 8 1011.5 1011.5 0.0
13/08:30pm 12.3 10.3 10.2 87 1.1 NNE 11 13 6 7 1011.5 1011.5 0.0
13/08:00pm 12.4 10.0 10.0 85 1.2 NE 13 15 7 8 1011.1 1011.1 0.0
13/07:30pm 12.6 10.3 10.3 86 1.2 NNE 13 15 7 8 1010.9 1010.9 0.0
13/07:00pm 12.6 9.8 10.0 84 1.3 N 15 17 8 9 1010.8 1010.8 0.0
13/06:30pm 13.5 11.1 10.1 80 1.8 N 13 13 7 7 1010.4 1010.4 0.0
13/06:00pm 14.0 11.6 10.2 78 2.0 NNW 13 17 7 9 1009.9 1009.9 0.0
13/05:30pm 14.6 12.2 10.0 74 2.4 NW 13 17 7 9 1009.2 1009.2 0.0
13/05:00pm 15.6 13.3 10.4 71 2.7 NW 13 19 7 10 1009.0 1009.0 0.0
13/04:30pm 15.5 11.5 8.3 62 3.6 NW 19 26 10 14 1008.9 1008.9 0.0
13/04:00pm 16.4 11.8 9.8 65 3.5 WNW 24 33 13 18 1008.9 1008.9 0.0
13/03:30pm 16.7 11.3 9.6 63 3.7 NW 28 35 15 19 1008.7 1008.7 0.0
13/03:00pm 17.4 12.6 10.3 63 3.8 NW 26 37 14 20 1008.9 1008.9 0.0
13/02:30pm 17.8 12.3 10.7 63 3.8 NW 30 43 16 23 1009.1 1009.1 0.0
13/02:00pm 17.0 12.9 11.5 70 3.0 WNW 24 32 13 17 1009.1 1009.1 0.0
13/01:30pm 16.1 11.3 10.4 69 3.0 NW 26 37 14 20 1009.3 1009.3 0.0
13/01:00pm 16.2 11.3 9.8 66 3.3 NNW 26 37 14 20 1009.5 1009.5 0.0
13/12:30pm 16.2 11.6 10.9 71 2.8 NW 26 33 14 18 1010.0 1010.0 0.0
13/12:00pm 15.7 11.4 10.9 73 2.6 NNW 24 32 13 17 1010.6 1010.6 0.0
13/11:30am 14.9 11.5 11.3 79 1.9 NNW 20 30 11 16 1011.0 1011.0 0.0
13/11:00am 14.7 10.1 10.9 78 2.0 NNW 26 33 14 18 1011.0 1011.0 0.0
13/10:46am 14.3 9.6 10.7 79 1.9 NNW 26 32 14 17 1011.0 1011.0 0.0
13/10:30am 14.5 9.9 10.9 79 1.9 NNW 26 35 14 19 1011.1 1011.1 0.0
13/10:00am 13.8 9.9 10.8 82 1.6 NNW 22 30 12 16 1011.1 1011.1 0.0
13/09:30am 13.5 9.4 10.1 80 1.8 NNW 22 35 12 19 1011.1 1011.1 0.0
13/09:00am 13.0 8.9 10.2 83 1.4 N 22 30 12 16 1010.9 1010.9 0.2
13/08:42am 13.1 9.5 10.6 85 1.3 NNW 20 26 11 14 1010.9 1010.9 0.2
13/08:35am 12.8 9.3 10.3 85 1.3 NNW 19 24 10 13 1010.9 1010.9 0.2
13/08:30am 12.7 9.3 10.4 86 1.2 NNW 19 24 10 13 1010.8 1010.8 0.2
13/08:00am 11.9 9.1 10.0 88 1.0 N 15 19 8 10 1010.5 1010.5 0.2
13/07:30am 11.6 8.0 9.7 88 1.0 NNW 19 24 10 13 1010.5 1010.5 0.2
13/07:00am 11.5 7.6 9.6 88 1.0 NNW 20 28 11 15 1010.0 1010.0 0.2
13/06:30am 11.2 7.9 9.5 89 0.9 N 17 20 9 11 1009.9 1009.9 0.2
13/06:02am 11.1 7.8 9.4 89 0.9 N 17 20 9 11 1009.7 1009.7 0.2
13/06:00am 11.1 8.1 9.4 89 0.9 N 15 19 8 10 1009.7 1009.7 0.2
13/05:42am 11.1 8.2 9.5 90 0.8 N 15 19 8 10 1009.5 1009.5 0.2
13/05:30am 11.1 8.1 9.4 89 0.9 N 15 17 8 9 1009.4 1009.4 0.2
13/05:00am 11.3 9.2 9.6 89 0.9 NNW 11 17 6 9 1009.5 1009.5 0.2
13/04:30am 11.2 8.3 9.5 89 0.9 NNW 15 20 8 11 1009.4 1009.4 0.2
13/04:00am 10.5 7.5 9.1 91 0.7 NNW 15 20 8 11 1009.1 1009.1 0.2
13/03:59am 10.4 7.3 9.0 91 0.7 NNW 15 19 8 10 1009.1 1009.1 0.2
13/03:30am 10.1 7.3 8.7 91 0.7 N 13 17 7 9 1008.9 1008.9 0.2
13/03:00am 10.3 7.1 8.6 89 0.8 NNW 15 19 8 10 1009.1 1009.1 0.2
13/02:30am 10.6 7.5 8.9 89 0.8 NNW 15 22 8 12 1009.2 1009.2 0.2
13/02:00am 11.1 7.7 9.2 88 0.9 NNW 17 20 9 11 1009.3 1009.3 0.2
13/01:30am 11.6 7.9 9.5 87 1.1 NNW 19 26 10 14 1009.3 1009.3 0.2
13/01:00am 11.9 8.2 10.0 88 1.0 NNW 20 24 11 13 1009.1 1009.1 0.2
13/12:30am 11.5 9.1 10.1 91 0.7 N 13 15 7 8 1009.2 1009.2 0.2
13/12:00am 11.2 9.5 10.0 92 0.6 N 9 13 5 7 1009.3 1009.3 0.2
 
Date/Time
CST
Temp
°C
App
Temp
°C
Dew
Point
°C
Rel
Hum
%
Delta-T
°C
Wind Press
QNH
hPa
Press
MSL
hPa
Rain since
9am
mm
Dir  Spd
km/h
Gust
km/h
Spd
kts
Gust
kts
12/11:30pm 10.6 8.7 9.2 91 0.7 N 9 11 5 6 1009.3 1009.3 0.2
12/11:00pm 11.3 8.8 9.7 90 0.8 NNW 13 17 7 9 1009.3 1009.3 0.2
12/10:30pm 12.1 9.8 10.5 90 0.8 N 13 17 7 9 1009.4 1009.4 0.2
12/10:00pm 12.4 10.3 11.0 91 0.7 N 13 15 7 8 1009.3 1009.3 0.2
12/09:30pm 12.9 10.8 11.3 90 0.8 NNW 13 15 7 8 1009.3 1009.3 0.2
12/09:00pm 13.1 11.0 11.0 87 1.1 NNW 13 19 7 10 1009.2 1009.2 0.2
12/08:30pm 13.2 9.9 10.9 86 1.2 NW 19 24 10 13 1008.9 1008.9 0.2
12/08:00pm 12.9 10.6 10.6 86 1.2 NNW 13 15 7 8 1008.4 1008.5 0.0
12/07:30pm 12.2 9.8 9.9 86 1.2 NNW 13 17 7 9 1008.1 1008.2 0.0
12/07:00pm 12.4 10.4 10.0 85 1.2 NNW 11 15 6 8 1007.8 1007.9 0.0
12/06:30pm 13.6 11.3 10.4 81 1.7 NNW 13 17 7 9 1007.3 1007.4 0.0
12/06:00pm 14.2 11.9 10.4 78 2.0 NW 13 17 7 9 1007.0 1007.1 0.0
12/05:30pm 14.4 11.3 10.2 76 2.2 NW 17 22 9 12 1006.6 1006.7 0.0
12/05:00pm 15.5 12.0 10.1 70 2.8 NW 19 24 10 13 1006.2 1006.3 0.0
12/04:30pm 15.7 12.3 10.7 72 2.7 NW 19 26 10 14 1006.0 1006.1 0.0
12/04:00pm 15.4 11.7 11.4 77 2.1 NW 22 30 12 16 1005.8 1005.9 0.0
12/03:30pm 15.1 12.3 12.6 85 1.4 NW 19 24 10 13 1005.7 1005.8 0.0
12/03:00pm 15.7 11.1 11.1 74 2.5 NW 26 33 14 18 1005.6 1005.7 0.0
12/02:30pm 15.8 11.3 12.5 81 1.8 WNW 28 37 15 20 1005.5 1005.6 0.0
12/02:00pm 17.3 11.8 12.0 71 2.9 NW 32 41 17 22 1005.4 1005.5 0.0
12/01:30pm 16.6 12.1 11.3 71 2.9 NW 26 35 14 19 1005.5 1005.6 0.0
12/01:00pm 16.2 11.3 11.4 73 2.6 NW 28 35 15 19 1005.8 1005.9 0.0
12/12:30pm 15.6 11.5 11.6 77 2.2 NNW 24 35 13 19 1006.1 1006.2 0.0
12/12:00pm 15.1 10.6 11.5 79 1.9 NNW 26 33 14 18 1006.1 1006.2 0.0
12/11:32am 14.9 10.5 11.7 81 1.7 NNW 26 35 14 19 1006.6 1006.7 0.0
12/11:30am 14.9 10.8 11.5 80 1.8 NNW 24 33 13 18 1006.5 1006.6 0.0
12/11:00am 14.1 9.1 11.1 82 1.6 NNW 28 41 15 22 1006.6 1006.7 0.0
12/10:30am 13.8 8.8 11.1 84 1.4 N 28 35 15 19 1006.6 1006.7 0.0
12/10:00am 12.6 7.5 10.5 87 1.1 NNW 28 35 15 19 1006.6 1006.7 0.0
12/09:30am 12.8 8.1 10.7 87 1.1 NNW 26 37 14 20 1006.5 1006.6 0.0
12/09:00am 12.5 8.7 9.9 84 1.3 N 20 28 11 15 1006.7 1006.8 7.8
12/08:30am 11.5 7.5 9.1 85 1.2 N 20 28 11 15 1006.6 1006.7 7.8
12/08:00am 11.0 7.1 8.8 86 1.1 N 19 26 10 14 1006.4 1006.5 7.8
12/07:30am 10.8 6.9 8.6 86 1.1 N 19 24 10 13 1006.3 1006.4 7.8
12/07:00am 10.4 7.2 8.3 87 1.0 NNE 15 19 8 10 1006.0 1006.1 7.6
12/06:30am 10.2 7.0 8.3 88 0.9 NNE 15 20 8 11 1005.9 1006.0 7.6
12/06:00am 10.0 6.7 8.1 88 0.9 NNE 15 19 8 10 1005.8 1005.9 7.6
12/05:30am 10.3 7.1 8.6 89 0.8 NNE 15 20 8 11 1005.9 1006.0 7.6
12/05:00am 10.7 7.3 9.0 89 0.8 NNE 17 20 9 11 1005.9 1006.0 7.6
12/04:30am 11.0 7.7 9.4 90 0.8 NE 17 22 9 12 1006.0 1006.1 7.6
12/04:00am 10.9 7.5 9.3 90 0.8 NNE 17 22 9 12 1006.2 1006.3 7.6
12/03:30am 10.9 7.2 9.3 90 0.8 NNE 19 22 10 12 1006.6 1006.7 7.4
12/03:26am 10.9 7.2 9.3 90 0.8 N 19 24 10 13 1006.6 1006.7 7.4
12/03:00am 11.3 7.3 8.9 85 1.2 NNE 20 32 11 17 1006.8 1006.9 6.8
12/02:46am 11.2 7.7 8.6 84 1.3 NNE 17 20 9 11 1006.9 1007.0 6.8
12/02:30am 11.4 7.8 8.4 82 1.5 NNE 17 26 9 14 1007.1 1007.2 6.6
12/02:00am 11.5 7.8 7.8 78 1.8 NNE 17 20 9 11 1007.4 1007.5 6.6
12/01:30am 11.2 7.0 7.3 77 1.9 NNE 19 24 10 13 1007.6 1007.7 6.6
12/01:00am 11.2 6.9 7.1 76 2.0 NNE 19 28 10 15 1007.6 1007.7 6.6
12/12:30am 10.8 6.5 7.1 78 1.8 NE 19 24 10 13 1007.3 1007.4 6.6
12/12:00am 10.6 6.7 7.1 79 1.7 NE 17 24 9 13 1007.1 1007.2 6.6

Latest Capital City Observations: Canberra | Sydney | Melbourne | Brisbane | Adelaide | Perth | Hobart | Darwin

Other formats

Comma delimited format used in spreadsheet applications
http://www.bom.gov.au/fwo/IDS60901/IDS60901.95676.axf

JavaScript Object Notation format (JSON) in row-major order
http://www.bom.gov.au/fwo/IDS60901/IDS60901.95676.json

Data quality

Most of these data are generated automatically and are frequently updated. Quality checks on data are not normally performed. It is possible for incorrect values to appear. Refer to information at About Latest Weather Observations and please check the disclaimer before using these data.